Lumsden, Canada
Current Conditions -  °F | °C
As of 7:00 AM on Monday 20 Oct 2014 (Local Time) from CYQR Reporting Station
Few Clouds Few Clouds  
Wind Chill: 32°   Ceiling: Unl
Heat Index: 39°   Visibility: 15mi
Dew Point: 36°   Wind: 12mph
Humidity: 87%   Direction: 130°SE
Pressure: 29.87"   Gusts: NA
Location:  50.64°N, 104.87°W
Report Text: CYQR 201300Z 13010KT 15SM FEW250 04/02 A2987 RMK CI1 SLP132
Loading
Personal Weather Stations






























Interactive Weather Map
Tropical Storm Tracking
New forecast layout! Learn more

10-Day Weather Forecast

Advertisements
Track Severe Weather on mobile